<?xml version="1.0" encoding="utf-8"?>
<gpx xmlns:xsi="http://www.w3.org/2001/XMLSchema-instance" xmlns:xsd="http://www.w3.org/2001/XMLSchema" version="1.1" creator="Shapelink.com" xmlns="http://www.topografix.com/GPX/1/1" xmlns:gpxtpx="http://www.garmin.com/xmlschemas/TrackPointExtension/v1">
  <metadata>
    <name>Löpning 10.11 km, 2019-04-10</name>
    <desc></desc>
    <author><name>Marian Moron</name></author> 
    <time>2019-04-10T22:21:40Z</time>
  </metadata>
  <trk>
    <name>Löpning 10.11 km, 2019-04-10</name>
    <trkseg>
      <trkpt lat="51.230009604407" lon="4.458727732766">
        <ele>0.6</ele>
        <time>2019-04-10T22:21:40Z</time>
      </trkpt>
      <trkpt lat="51.230070289363" lon="4.458908027435">
        <ele>0.2</ele>
        <time>2019-04-10T22:21:46Z</time>
      </trkpt>
      <trkpt lat="51.230272041696" lon="4.458868967781">
        <ele>2.4</ele>
        <time>2019-04-10T22:21:53Z</time>
      </trkpt>
      <trkpt lat="51.230422161525" lon="4.4588858154">
        <ele>5.4</ele>
        <time>2019-04-10T22:21:58Z</time>
      </trkpt>
      <trkpt lat="51.230504807059" lon="4.459186306515">
        <ele>10.4</ele>
        <time>2019-04-10T22:22:05Z</time>
      </trkpt>
      <trkpt lat="51.23055585283" lon="4.459469950011">
        <ele>12.6</ele>
        <time>2019-04-10T22:22:12Z</time>
      </trkpt>
      <trkpt lat="51.230604300212" lon="4.459746385073">
        <ele>13.6</ele>
        <time>2019-04-10T22:22:19Z</time>
      </trkpt>
      <trkpt lat="51.230770597108" lon="4.459798017577">
        <ele>15.4</ele>
        <time>2019-04-10T22:22:27Z</time>
      </trkpt>
      <trkpt lat="51.230957681116" lon="4.459737500259">
        <ele>15.4</ele>
        <time>2019-04-10T22:22:34Z</time>
      </trkpt>
      <trkpt lat="51.231139065432" lon="4.459695842216">
        <ele>17.4</ele>
        <time>2019-04-10T22:22:40Z</time>
      </trkpt>
      <trkpt lat="51.231322629042" lon="4.459677234398">
        <ele>18.4</ele>
        <time>2019-04-10T22:22:46Z</time>
      </trkpt>
      <trkpt lat="51.231536116035" lon="4.459664996824">
        <ele>18</ele>
        <time>2019-04-10T22:22:52Z</time>
      </trkpt>
      <trkpt lat="51.231716913618" lon="4.459571119544">
        <ele>15.8</ele>
        <time>2019-04-10T22:23:00Z</time>
      </trkpt>
      <trkpt lat="51.231873571329" lon="4.459368948116">
        <ele>14.2</ele>
        <time>2019-04-10T22:23:08Z</time>
      </trkpt>
      <trkpt lat="51.232059733328" lon="4.459310610092">
        <ele>12.4</ele>
        <time>2019-04-10T22:23:16Z</time>
      </trkpt>
      <trkpt lat="51.232247739345" lon="4.459394512911">
        <ele>11.8</ele>
        <time>2019-04-10T22:23:24Z</time>
      </trkpt>
      <trkpt lat="51.232308340482" lon="4.459405241743">
        <ele>10.8</ele>
        <time>2019-04-10T22:23:27Z</time>
      </trkpt>
      <trkpt lat="51.232490562988" lon="4.459319327268">
        <ele>9.6</ele>
        <time>2019-04-10T22:23:34Z</time>
      </trkpt>
      <trkpt lat="51.232680077747" lon="4.45929401393">
        <ele>8.8</ele>
        <time>2019-04-10T22:23:40Z</time>
      </trkpt>
      <trkpt lat="51.23270581018" lon="4.459322428571">
        <ele>8.6</ele>
        <time>2019-04-10T22:23:41Z</time>
      </trkpt>
      <trkpt lat="51.232774709398" lon="4.459594840321">
        <ele>7.2</ele>
        <time>2019-04-10T22:23:47Z</time>
      </trkpt>
      <trkpt lat="51.232845201177" lon="4.459892900685">
        <ele>6.6</ele>
        <time>2019-04-10T22:23:53Z</time>
      </trkpt>
      <trkpt lat="51.232921727924" lon="4.460181489502">
        <ele>8.2</ele>
        <time>2019-04-10T22:23:59Z</time>
      </trkpt>
      <trkpt lat="51.232982915794" lon="4.460484159911">
        <ele>9.8</ele>
        <time>2019-04-10T22:24:06Z</time>
      </trkpt>
      <trkpt lat="51.23306204093" lon="4.460771072348">
        <ele>11</ele>
        <time>2019-04-10T22:24:13Z</time>
      </trkpt>
      <trkpt lat="51.233169664526" lon="4.461049016152">
        <ele>13.2</ele>
        <time>2019-04-10T22:24:20Z</time>
      </trkpt>
      <trkpt lat="51.233258345028" lon="4.461336850598">
        <ele>15.6</ele>
        <time>2019-04-10T22:24:27Z</time>
      </trkpt>
      <trkpt lat="51.233317269785" lon="4.461624349768">
        <ele>16.8</ele>
        <time>2019-04-10T22:24:34Z</time>
      </trkpt>
      <trkpt lat="51.23337217123" lon="4.461940263579">
        <ele>19.8</ele>
        <time>2019-04-10T22:24:41Z</time>
      </trkpt>
      <trkpt lat="51.233423552277" lon="4.462241341427">
        <ele>21.6</ele>
        <time>2019-04-10T22:24:47Z</time>
      </trkpt>
      <trkpt lat="51.233475436238" lon="4.462551974641">
        <ele>23.4</ele>
        <time>2019-04-10T22:24:54Z</time>
      </trkpt>
      <trkpt lat="51.233484069595" lon="4.462847688073">
        <ele>22.6</ele>
        <time>2019-04-10T22:25:00Z</time>
      </trkpt>
      <trkpt lat="51.233500917214" lon="4.463136612166">
        <ele>21</ele>
        <time>2019-04-10T22:25:06Z</time>
      </trkpt>
      <trkpt lat="51.233546850026" lon="4.463423859879">
        <ele>20.8</ele>
        <time>2019-04-10T22:25:12Z</time>
      </trkpt>
      <trkpt lat="51.23361021719" lon="4.463695517258">
        <ele>21</ele>
        <time>2019-04-10T22:25:18Z</time>
      </trkpt>
      <trkpt lat="51.233607870258" lon="4.463993326165">
        <ele>20.6</ele>
        <time>2019-04-10T22:25:26Z</time>
      </trkpt>
      <trkpt lat="51.233629411741" lon="4.464296750945">
        <ele>18.8</ele>
        <time>2019-04-10T22:25:34Z</time>
      </trkpt>
      <trkpt lat="51.233703088642" lon="4.46460143301">
        <ele>17.8</ele>
        <time>2019-04-10T22:25:41Z</time>
      </trkpt>
      <trkpt lat="51.233741310106" lon="4.464882981031">
        <ele>18.2</ele>
        <time>2019-04-10T22:25:47Z</time>
      </trkpt>
      <trkpt lat="51.233796714465" lon="4.465165786337">
        <ele>17.6</ele>
        <time>2019-04-10T22:25:54Z</time>
      </trkpt>
      <trkpt lat="51.233869050262" lon="4.465444735969">
        <ele>18.4</ele>
        <time>2019-04-10T22:26:01Z</time>
      </trkpt>
      <trkpt lat="51.233931327779" lon="4.465736509908">
        <ele>19.4</ele>
        <time>2019-04-10T22:26:08Z</time>
      </trkpt>
      <trkpt lat="51.233995952228" lon="4.466032810073">
        <ele>21.4</ele>
        <time>2019-04-10T22:26:15Z</time>
      </trkpt>
      <trkpt lat="51.234063258885" lon="4.466341934545">
        <ele>23.4</ele>
        <time>2019-04-10T22:26:22Z</time>
      </trkpt>
      <trkpt lat="51.234126206954" lon="4.466656004338">
        <ele>24</ele>
        <time>2019-04-10T22:26:29Z</time>
      </trkpt>
      <trkpt lat="51.234174067603" lon="4.466960770222">
        <ele>24.6</ele>
        <time>2019-04-10T22:26:36Z</time>
      </trkpt>
      <trkpt lat="51.234229388143" lon="4.467254471998">
        <ele>23.8</ele>
        <time>2019-04-10T22:26:43Z</time>
      </trkpt>
      <trkpt lat="51.23427574005" lon="4.467555382208">
        <ele>23.6</ele>
        <time>2019-04-10T22:26:50Z</time>
      </trkpt>
      <trkpt lat="51.234319745025" lon="4.468027702273">
        <ele>26.2</ele>
        <time>2019-04-10T22:27:00Z</time>
      </trkpt>
      <trkpt lat="51.234344890725" lon="4.468327103741">
        <ele>24.4</ele>
        <time>2019-04-10T22:27:07Z</time>
      </trkpt>
      <trkpt lat="51.234391577908" lon="4.4686339651">
        <ele>22.4</ele>
        <time>2019-04-10T22:27:14Z</time>
      </trkpt>
      <trkpt lat="51.234431978666" lon="4.468915094026">
        <ele>23.4</ele>
        <time>2019-04-10T22:27:20Z</time>
      </trkpt>
      <trkpt lat="51.23448025841" lon="4.469191864364">
        <ele>25.4</ele>
        <time>2019-04-10T22:27:26Z</time>
      </trkpt>
      <trkpt lat="51.234531220362" lon="4.46950735908">
        <ele>24.6</ele>
        <time>2019-04-10T22:27:33Z</time>
      </trkpt>
      <trkpt lat="51.234579835382" lon="4.469784464694">
        <ele>26.6</ele>
        <time>2019-04-10T22:27:40Z</time>
      </trkpt>
      <trkpt lat="51.234613614439" lon="4.470088308569">
        <ele>27.2</ele>
        <time>2019-04-10T22:27:47Z</time>
      </trkpt>
      <trkpt lat="51.23465460193" lon="4.470389637874">
        <ele>27.4</ele>
        <time>2019-04-10T22:27:54Z</time>
      </trkpt>
      <trkpt lat="51.234701959665" lon="4.470676801768">
        <ele>29.8</ele>
        <time>2019-04-10T22:28:01Z</time>
      </trkpt>
      <trkpt lat="51.234732721238" lon="4.470988356991">
        <ele>25.6</ele>
        <time>2019-04-10T22:28:09Z</time>
      </trkpt>
      <trkpt lat="51.234756442015" lon="4.471276694351">
        <ele>23</ele>
        <time>2019-04-10T22:28:16Z</time>
      </trkpt>
      <trkpt lat="51.234821737016" lon="4.471579113303">
        <ele>20.8</ele>
        <time>2019-04-10T22:28:24Z</time>
      </trkpt>
      <trkpt lat="51.234850235476" lon="4.471879688237">
        <ele>22</ele>
        <time>2019-04-10T22:28:31Z</time>
      </trkpt>
      <trkpt lat="51.234911339527" lon="4.472196691695">
        <ele>22.6</ele>
        <time>2019-04-10T22:28:39Z</time>
      </trkpt>
      <trkpt lat="51.234954925407" lon="4.472481424838">
        <ele>22.6</ele>
        <time>2019-04-10T22:28:45Z</time>
      </trkpt>
      <trkpt lat="51.23500664173" lon="4.472797841563">
        <ele>22</ele>
        <time>2019-04-10T22:28:52Z</time>
      </trkpt>
      <trkpt lat="51.235053077456" lon="4.473113420098">
        <ele>19.2</ele>
        <time>2019-04-10T22:28:59Z</time>
      </trkpt>
      <trkpt lat="51.23512063557" lon="4.473381808536">
        <ele>18</ele>
        <time>2019-04-10T22:29:05Z</time>
      </trkpt>
      <trkpt lat="51.235169585866" lon="4.47365807596">
        <ele>18.4</ele>
        <time>2019-04-10T22:29:11Z</time>
      </trkpt>
      <trkpt lat="51.235214429031" lon="4.473958315618">
        <ele>16.6</ele>
        <time>2019-04-10T22:29:18Z</time>
      </trkpt>
      <trkpt lat="51.23525390778" lon="4.474262327131">
        <ele>16.4</ele>
        <time>2019-04-10T22:29:25Z</time>
      </trkpt>
      <trkpt lat="51.235308893044" lon="4.474552592328">
        <ele>18</ele>
        <time>2019-04-10T22:29:32Z</time>
      </trkpt>
      <trkpt lat="51.235377205529" lon="4.474851239425">
        <ele>17.6</ele>
        <time>2019-04-10T22:29:40Z</time>
      </trkpt>
      <trkpt lat="51.235433196621" lon="4.475126081926">
        <ele>12.6</ele>
        <time>2019-04-10T22:29:47Z</time>
      </trkpt>
      <trkpt lat="51.235482985107" lon="4.475437218054">
        <ele>10.2</ele>
        <time>2019-04-10T22:29:54Z</time>
      </trkpt>
      <trkpt lat="51.235571078876" lon="4.475731171287">
        <ele>12</ele>
        <time>2019-04-10T22:30:01Z</time>
      </trkpt>
      <trkpt lat="51.235641738293" lon="4.476040798673">
        <ele>13.4</ele>
        <time>2019-04-10T22:30:08Z</time>
      </trkpt>
      <trkpt lat="51.235717175393" lon="4.476340703055">
        <ele>14.6</ele>
        <time>2019-04-10T22:30:15Z</time>
      </trkpt>
      <trkpt lat="51.235775429598" lon="4.476612863348">
        <ele>13.8</ele>
        <time>2019-04-10T22:30:21Z</time>
      </trkpt>
      <trkpt lat="51.235825972455" lon="4.476905978391">
        <ele>16.2</ele>
        <time>2019-04-10T22:30:28Z</time>
      </trkpt>
      <trkpt lat="51.235887160325" lon="4.477198255244">
        <ele>14.4</ele>
        <time>2019-04-10T22:30:35Z</time>
      </trkpt>
      <trkpt lat="51.235952874421" lon="4.477484664767">
        <ele>13.8</ele>
        <time>2019-04-10T22:30:42Z</time>
      </trkpt>
      <trkpt lat="51.236026383684" lon="4.477794962705">
        <ele>11.6</ele>
        <time>2019-04-10T22:30:49Z</time>
      </trkpt>
      <trkpt lat="51.236074579609" lon="4.478078019468">
        <ele>15.4</ele>
        <time>2019-04-10T22:30:55Z</time>
      </trkpt>
      <trkpt lat="51.236138617325" lon="4.478389407053">
        <ele>18.8</ele>
        <time>2019-04-10T22:31:02Z</time>
      </trkpt>
      <trkpt lat="51.23619770972" lon="4.478692664195">
        <ele>20</ele>
        <time>2019-04-10T22:31:09Z</time>
      </trkpt>
      <trkpt lat="51.236214138244" lon="4.478978822261">
        <ele>20.4</ele>
        <time>2019-04-10T22:31:15Z</time>
      </trkpt>
      <trkpt lat="51.236240122134" lon="4.479280151566">
        <ele>24</ele>
        <time>2019-04-10T22:31:22Z</time>
      </trkpt>
      <trkpt lat="51.236254287545" lon="4.47959246116">
        <ele>26</ele>
        <time>2019-04-10T22:31:29Z</time>
      </trkpt>
      <trkpt lat="51.236263591454" lon="4.479921199278">
        <ele>28.6</ele>
        <time>2019-04-10T22:31:36Z</time>
      </trkpt>
      <trkpt lat="51.236246408559" lon="4.480232586863">
        <ele>27</ele>
        <time>2019-04-10T22:31:43Z</time>
      </trkpt>
      <trkpt lat="51.236220759945" lon="4.480557888402">
        <ele>23.8</ele>
        <time>2019-04-10T22:31:50Z</time>
      </trkpt>
      <trkpt lat="51.23620273886" lon="4.480844297925">
        <ele>23.2</ele>
        <time>2019-04-10T22:31:56Z</time>
      </trkpt>
      <trkpt lat="51.236164936491" lon="4.481167503989">
        <ele>20.4</ele>
        <time>2019-04-10T22:32:03Z</time>
      </trkpt>
      <trkpt lat="51.236147334501" lon="4.481485429456">
        <ele>19.6</ele>
        <time>2019-04-10T22:32:10Z</time>
      </trkpt>
      <trkpt lat="51.236148927062" lon="4.481908463949">
        <ele>20.6</ele>
        <time>2019-04-10T22:32:20Z</time>
      </trkpt>
      <trkpt lat="51.236102910431" lon="4.482232675841">
        <ele>19</ele>
        <time>2019-04-10T22:32:27Z</time>
      </trkpt>
      <trkpt lat="51.236088242106" lon="4.482548422014">
        <ele>17.2</ele>
        <time>2019-04-10T22:32:34Z</time>
      </trkpt>
      <trkpt lat="51.236073070867" lon="4.482866934214">
        <ele>13.4</ele>
        <time>2019-04-10T22:32:41Z</time>
      </trkpt>
      <trkpt lat="51.236071059211" lon="4.483175555772">
        <ele>11.6</ele>
        <time>2019-04-10T22:32:47Z</time>
      </trkpt>
      <trkpt lat="51.236045745873" lon="4.483471269204">
        <ele>8.8</ele>
        <time>2019-04-10T22:32:54Z</time>
      </trkpt>
      <trkpt lat="51.236029568806" lon="4.483769581025">
        <ele>5.8</ele>
        <time>2019-04-10T22:33:01Z</time>
      </trkpt>
      <trkpt lat="51.236035855231" lon="4.484083650818">
        <ele>5.6</ele>
        <time>2019-04-10T22:33:08Z</time>
      </trkpt>
      <trkpt lat="51.23602839534" lon="4.484386740322">
        <ele>3.2</ele>
        <time>2019-04-10T22:33:15Z</time>
      </trkpt>
      <trkpt lat="51.236042141656" lon="4.484709443472">
        <ele>5.2</ele>
        <time>2019-04-10T22:33:22Z</time>
      </trkpt>
      <trkpt lat="51.236049014814" lon="4.485026866025">
        <ele>4</ele>
        <time>2019-04-10T22:33:29Z</time>
      </trkpt>
      <trkpt lat="51.236056642343" lon="4.485337247782">
        <ele>5.4</ele>
        <time>2019-04-10T22:33:36Z</time>
      </trkpt>
      <trkpt lat="51.236075166342" lon="4.485657352543">
        <ele>8.6</ele>
        <time>2019-04-10T22:33:44Z</time>
      </trkpt>
      <trkpt lat="51.236076423627" lon="4.485946276636">
        <ele>9.6</ele>
        <time>2019-04-10T22:33:51Z</time>
      </trkpt>
      <trkpt lat="51.236082961509" lon="4.486244085543">
        <ele>11.4</ele>
        <time>2019-04-10T22:33:58Z</time>
      </trkpt>
      <trkpt lat="51.236091762504" lon="4.486540301889">
        <ele>10.8</ele>
        <time>2019-04-10T22:34:05Z</time>
      </trkpt>
      <trkpt lat="51.236104000078" lon="4.486832578742">
        <ele>9.4</ele>
        <time>2019-04-10T22:34:12Z</time>
      </trkpt>
      <trkpt lat="51.236109448313" lon="4.487146145621">
        <ele>9.4</ele>
        <time>2019-04-10T22:34:19Z</time>
      </trkpt>
      <trkpt lat="51.236103161888" lon="4.487447558745">
        <ele>6.4</ele>
        <time>2019-04-10T22:34:26Z</time>
      </trkpt>
      <trkpt lat="51.236100395861" lon="4.487753498095">
        <ele>6.6</ele>
        <time>2019-04-10T22:34:33Z</time>
      </trkpt>
      <trkpt lat="51.2360988033" lon="4.488043260378">
        <ele>5.8</ele>
        <time>2019-04-10T22:34:39Z</time>
      </trkpt>
      <trkpt lat="51.23610383244" lon="4.488347858624">
        <ele>5.6</ele>
        <time>2019-04-10T22:34:46Z</time>
      </trkpt>
      <trkpt lat="51.236093438884" lon="4.488649774662">
        <ele>4.8</ele>
        <time>2019-04-10T22:34:53Z</time>
      </trkpt>
      <trkpt lat="51.23610886158" lon="4.488952277433">
        <ele>4.6</ele>
        <time>2019-04-10T22:35:00Z</time>
      </trkpt>
      <trkpt lat="51.236120428602" lon="4.48925930643">
        <ele>4.2</ele>
        <time>2019-04-10T22:35:07Z</time>
      </trkpt>
      <trkpt lat="51.236117746394" lon="4.489578070087">
        <ele>5.6</ele>
        <time>2019-04-10T22:35:14Z</time>
      </trkpt>
      <trkpt lat="51.23610634701" lon="4.489865485438">
        <ele>7.6</ele>
        <time>2019-04-10T22:35:21Z</time>
      </trkpt>
      <trkpt lat="51.236080949853" lon="4.490174358453">
        <ele>6.2</ele>
        <time>2019-04-10T22:35:29Z</time>
      </trkpt>
      <trkpt lat="51.236019426707" lon="4.490472837912">
        <ele>6.6</ele>
        <time>2019-04-10T22:35:37Z</time>
      </trkpt>
      <trkpt lat="51.2359814567" lon="4.490762767833">
        <ele>8.2</ele>
        <time>2019-04-10T22:35:44Z</time>
      </trkpt>
      <trkpt lat="51.235925381789" lon="4.491055882876">
        <ele>9.6</ele>
        <time>2019-04-10T22:35:51Z</time>
      </trkpt>
      <trkpt lat="51.235871234715" lon="4.491357966552">
        <ele>13</ele>
        <time>2019-04-10T22:35:58Z</time>
      </trkpt>
      <trkpt lat="51.235805604438" lon="4.491665247006">
        <ele>15.8</ele>
        <time>2019-04-10T22:36:05Z</time>
      </trkpt>
      <trkpt lat="51.23573419065" lon="4.491941598249">
        <ele>15.6</ele>
        <time>2019-04-10T22:36:11Z</time>
      </trkpt>
      <trkpt lat="51.23564785708" lon="4.492205795737">
        <ele>12.4</ele>
        <time>2019-04-10T22:36:17Z</time>
      </trkpt>
      <trkpt lat="51.235550962316" lon="4.492461695144">
        <ele>9.6</ele>
        <time>2019-04-10T22:36:23Z</time>
      </trkpt>
      <trkpt lat="51.235460521615" lon="4.492721953139">
        <ele>8</ele>
        <time>2019-04-10T22:36:29Z</time>
      </trkpt>
      <trkpt lat="51.235364213584" lon="4.493017163657">
        <ele>7.4</ele>
        <time>2019-04-10T22:36:36Z</time>
      </trkpt>
      <trkpt lat="51.235286178095" lon="4.493287563751">
        <ele>6</ele>
        <time>2019-04-10T22:36:42Z</time>
      </trkpt>
      <trkpt lat="51.235200850353" lon="4.493575398197">
        <ele>4.8</ele>
        <time>2019-04-10T22:36:48Z</time>
      </trkpt>
      <trkpt lat="51.235108817091" lon="4.493871530724">
        <ele>4</ele>
        <time>2019-04-10T22:36:55Z</time>
      </trkpt>
      <trkpt lat="51.235027177385" lon="4.494126424303">
        <ele>3.6</ele>
        <time>2019-04-10T22:37:01Z</time>
      </trkpt>
      <trkpt lat="51.234941849643" lon="4.494419790803">
        <ele>4.4</ele>
        <time>2019-04-10T22:37:09Z</time>
      </trkpt>
      <trkpt lat="51.234856270444" lon="4.494698656616">
        <ele>6</ele>
        <time>2019-04-10T22:37:16Z</time>
      </trkpt>
      <trkpt lat="51.234773038177" lon="4.494963859932">
        <ele>6.2</ele>
        <time>2019-04-10T22:37:23Z</time>
      </trkpt>
      <trkpt lat="51.234688883901" lon="4.495240881727">
        <ele>7.6</ele>
        <time>2019-04-10T22:37:30Z</time>
      </trkpt>
      <trkpt lat="51.234560557012" lon="4.495694342517">
        <ele>8.8</ele>
        <time>2019-04-10T22:37:41Z</time>
      </trkpt>
      <trkpt lat="51.234474055804" lon="4.495964407335">
        <ele>7</ele>
        <time>2019-04-10T22:37:48Z</time>
      </trkpt>
      <trkpt lat="51.234401887645" lon="4.49625484017">
        <ele>6.4</ele>
        <time>2019-04-10T22:37:55Z</time>
      </trkpt>
      <trkpt lat="51.234335586816" lon="4.496554241638">
        <ele>6.8</ele>
        <time>2019-04-10T22:38:02Z</time>
      </trkpt>
      <trkpt lat="51.234270962367" lon="4.496829670872">
        <ele>9</ele>
        <time>2019-04-10T22:38:09Z</time>
      </trkpt>
      <trkpt lat="51.234190831403" lon="4.497100741518">
        <ele>10.2</ele>
        <time>2019-04-10T22:38:16Z</time>
      </trkpt>
      <trkpt lat="51.234115059027" lon="4.497377847132">
        <ele>11.6</ele>
        <time>2019-04-10T22:38:23Z</time>
      </trkpt>
      <trkpt lat="51.234057894469" lon="4.497652689633">
        <ele>16</ele>
        <time>2019-04-10T22:38:30Z</time>
      </trkpt>
      <trkpt lat="51.233976170944" lon="4.497928202686">
        <ele>16.6</ele>
        <time>2019-04-10T22:38:37Z</time>
      </trkpt>
      <trkpt lat="51.233882209845" lon="4.498214025476">
        <ele>17.6</ele>
        <time>2019-04-10T22:38:44Z</time>
      </trkpt>
      <trkpt lat="51.233781459407" lon="4.498455256558">
        <ele>16.2</ele>
        <time>2019-04-10T22:38:50Z</time>
      </trkpt>
      <trkpt lat="51.233663526074" lon="4.498702606427">
        <ele>16</ele>
        <time>2019-04-10T22:38:57Z</time>
      </trkpt>
      <trkpt lat="51.233538635764" lon="4.498950794486">
        <ele>16.2</ele>
        <time>2019-04-10T22:39:04Z</time>
      </trkpt>
      <trkpt lat="51.233412655807" lon="4.499172244284">
        <ele>14.8</ele>
        <time>2019-04-10T22:39:11Z</time>
      </trkpt>
      <trkpt lat="51.233276701389" lon="4.499406099294">
        <ele>13.6</ele>
        <time>2019-04-10T22:39:18Z</time>
      </trkpt>
      <trkpt lat="51.233134460546" lon="4.499641379227">
        <ele>12.6</ele>
        <time>2019-04-10T22:39:25Z</time>
      </trkpt>
      <trkpt lat="51.233013593548" lon="4.499866768518">
        <ele>12.4</ele>
        <time>2019-04-10T22:39:32Z</time>
      </trkpt>
      <trkpt lat="51.232870346877" lon="4.500092493085">
        <ele>10.8</ele>
        <time>2019-04-10T22:39:39Z</time>
      </trkpt>
      <trkpt lat="51.232734643916" lon="4.50031670891">
        <ele>11.8</ele>
        <time>2019-04-10T22:39:46Z</time>
      </trkpt>
      <trkpt lat="51.232614950384" lon="4.500544948047">
        <ele>12.6</ele>
        <time>2019-04-10T22:39:53Z</time>
      </trkpt>
      <trkpt lat="51.232493664291" lon="4.500797327056">
        <ele>12.4</ele>
        <time>2019-04-10T22:40:00Z</time>
      </trkpt>
      <trkpt lat="51.232362739013" lon="4.501058004146">
        <ele>13.4</ele>
        <time>2019-04-10T22:40:07Z</time>
      </trkpt>
      <trkpt lat="51.232240698549" lon="4.501309712603">
        <ele>14.6</ele>
        <time>2019-04-10T22:40:14Z</time>
      </trkpt>
      <trkpt lat="51.232122513759" lon="4.501572820444">
        <ele>15.6</ele>
        <time>2019-04-10T22:40:21Z</time>
      </trkpt>
      <trkpt lat="51.231997036716" lon="4.501827714023">
        <ele>15.6</ele>
        <time>2019-04-10T22:40:28Z</time>
      </trkpt>
      <trkpt lat="51.231836942426" lon="4.502037010066">
        <ele>15.2</ele>
        <time>2019-04-10T22:40:35Z</time>
      </trkpt>
      <trkpt lat="51.231715823971" lon="4.502240438779">
        <ele>15.6</ele>
        <time>2019-04-10T22:40:42Z</time>
      </trkpt>
      <trkpt lat="51.231727893907" lon="4.50255132345">
        <ele>15</ele>
        <time>2019-04-10T22:40:50Z</time>
      </trkpt>
      <trkpt lat="51.231641644156" lon="4.502674202104">
        <ele>14.8</ele>
        <time>2019-04-10T22:40:55Z</time>
      </trkpt>
      <trkpt lat="51.231515748018" lon="4.502476221626">
        <ele>16.6</ele>
        <time>2019-04-10T22:41:02Z</time>
      </trkpt>
      <trkpt lat="51.231399155789" lon="4.502255610018">
        <ele>17.4</ele>
        <time>2019-04-10T22:41:09Z</time>
      </trkpt>
      <trkpt lat="51.231296477514" lon="4.502163828213">
        <ele>16.8</ele>
        <time>2019-04-10T22:41:14Z</time>
      </trkpt>
      <trkpt lat="51.231261860267" lon="4.502217388554">
        <ele>16</ele>
        <time>2019-04-10T22:41:16Z</time>
      </trkpt>
      <trkpt lat="51.231265380665" lon="4.502376309378">
        <ele>14.8</ele>
        <time>2019-04-10T22:41:19Z</time>
      </trkpt>
      <trkpt lat="51.231282228284" lon="4.502410758987">
        <ele>15.4</ele>
        <time>2019-04-10T22:41:21Z</time>
      </trkpt>
      <trkpt lat="51.231392450269" lon="4.502670681706">
        <ele>14.6</ele>
        <time>2019-04-10T22:41:28Z</time>
      </trkpt>
      <trkpt lat="51.231441987298" lon="4.502960779265">
        <ele>13.6</ele>
        <time>2019-04-10T22:41:35Z</time>
      </trkpt>
      <trkpt lat="51.231457158537" lon="4.503292031953">
        <ele>12.2</ele>
        <time>2019-04-10T22:41:42Z</time>
      </trkpt>
      <trkpt lat="51.231394797201" lon="4.503596797837">
        <ele>10</ele>
        <time>2019-04-10T22:41:49Z</time>
      </trkpt>
      <trkpt lat="51.231296309876" lon="4.503855379452">
        <ele>11.6</ele>
        <time>2019-04-10T22:41:55Z</time>
      </trkpt>
      <trkpt lat="51.231223219708" lon="4.504120247492">
        <ele>13.2</ele>
        <time>2019-04-10T22:42:01Z</time>
      </trkpt>
      <trkpt lat="51.231188853918" lon="4.504445465212">
        <ele>13</ele>
        <time>2019-04-10T22:42:08Z</time>
      </trkpt>
      <trkpt lat="51.23113923307" lon="4.50473648478">
        <ele>12.6</ele>
        <time>2019-04-10T22:42:15Z</time>
      </trkpt>
      <trkpt lat="51.231098832312" lon="4.505029516004">
        <ele>13.4</ele>
        <time>2019-04-10T22:42:22Z</time>
      </trkpt>
      <trkpt lat="51.231034878415" lon="4.505324307427">
        <ele>12.4</ele>
        <time>2019-04-10T22:42:29Z</time>
      </trkpt>
      <trkpt lat="51.230961201514" lon="4.505620859049">
        <ele>10</ele>
        <time>2019-04-10T22:42:36Z</time>
      </trkpt>
      <trkpt lat="51.230860702533" lon="4.505893019342">
        <ele>8.8</ele>
        <time>2019-04-10T22:42:43Z</time>
      </trkpt>
      <trkpt lat="51.230778392275" lon="4.506149002568">
        <ele>8.8</ele>
        <time>2019-04-10T22:42:50Z</time>
      </trkpt>
      <trkpt lat="51.230615531958" lon="4.506725342012">
        <ele>11.4</ele>
        <time>2019-04-10T22:43:05Z</time>
      </trkpt>
      <trkpt lat="51.23053405989" lon="4.507020468711">
        <ele>9.2</ele>
        <time>2019-04-10T22:43:12Z</time>
      </trkpt>
      <trkpt lat="51.23048879763" lon="4.50731978636">
        <ele>7.8</ele>
        <time>2019-04-10T22:43:19Z</time>
      </trkpt>
      <trkpt lat="51.230452923098" lon="4.507627569728">
        <ele>8</ele>
        <time>2019-04-10T22:43:26Z</time>
      </trkpt>
      <trkpt lat="51.230401290594" lon="4.507910626491">
        <ele>9.8</ele>
        <time>2019-04-10T22:43:33Z</time>
      </trkpt>
      <trkpt lat="51.230325769675" lon="4.508219918601">
        <ele>12.8</ele>
        <time>2019-04-10T22:43:40Z</time>
      </trkpt>
      <trkpt lat="51.230263408339" lon="4.50853013272">
        <ele>14.2</ele>
        <time>2019-04-10T22:43:47Z</time>
      </trkpt>
      <trkpt lat="51.230209764179" lon="4.508847387635">
        <ele>15.2</ele>
        <time>2019-04-10T22:43:54Z</time>
      </trkpt>
      <trkpt lat="51.230153270173" lon="4.50916715712">
        <ele>13.6</ele>
        <time>2019-04-10T22:44:01Z</time>
      </trkpt>
      <trkpt lat="51.230090573561" lon="4.509443676001">
        <ele>11.8</ele>
        <time>2019-04-10T22:44:07Z</time>
      </trkpt>
      <trkpt lat="51.230017986307" lon="4.509752046102">
        <ele>11.4</ele>
        <time>2019-04-10T22:44:14Z</time>
      </trkpt>
      <trkpt lat="51.229937855343" lon="4.510007107319">
        <ele>11.8</ele>
        <time>2019-04-10T22:44:22Z</time>
      </trkpt>
      <trkpt lat="51.229879936414" lon="4.51031883018">
        <ele>12</ele>
        <time>2019-04-10T22:44:30Z</time>
      </trkpt>
      <trkpt lat="51.229828723005" lon="4.510640192226">
        <ele>10.4</ele>
        <time>2019-04-10T22:44:38Z</time>
      </trkpt>
      <trkpt lat="51.229820927838" lon="4.510935067468">
        <ele>11.6</ele>
        <time>2019-04-10T22:44:45Z</time>
      </trkpt>
      <trkpt lat="51.229746412747" lon="4.511235726221">
        <ele>12.8</ele>
        <time>2019-04-10T22:44:52Z</time>
      </trkpt>
      <trkpt lat="51.229662007014" lon="4.511520207907">
        <ele>15.4</ele>
        <time>2019-04-10T22:44:59Z</time>
      </trkpt>
      <trkpt lat="51.229605932103" lon="4.511819693194">
        <ele>15.2</ele>
        <time>2019-04-10T22:45:06Z</time>
      </trkpt>
      <trkpt lat="51.229549354278" lon="4.512132505702">
        <ele>14.2</ele>
        <time>2019-04-10T22:45:13Z</time>
      </trkpt>
      <trkpt lat="51.22946285307" lon="4.5124126288">
        <ele>17</ele>
        <time>2019-04-10T22:45:20Z</time>
      </trkpt>
      <trkpt lat="51.229392696567" lon="4.512698032495">
        <ele>15.8</ele>
        <time>2019-04-10T22:45:27Z</time>
      </trkpt>
      <trkpt lat="51.229313571431" lon="4.512972455901">
        <ele>14.8</ele>
        <time>2019-04-10T22:45:34Z</time>
      </trkpt>
      <trkpt lat="51.229236625589" lon="4.51326003889">
        <ele>13.2</ele>
        <time>2019-04-10T22:45:41Z</time>
      </trkpt>
      <trkpt lat="51.229163786878" lon="4.513540161988">
        <ele>12</ele>
        <time>2019-04-10T22:45:48Z</time>
      </trkpt>
      <trkpt lat="51.229101844637" lon="4.51383922818">
        <ele>10.2</ele>
        <time>2019-04-10T22:45:55Z</time>
      </trkpt>
      <trkpt lat="51.229055408911" lon="4.514141395675">
        <ele>9.6</ele>
        <time>2019-04-10T22:46:02Z</time>
      </trkpt>
      <trkpt lat="51.228959268518" lon="4.514393020313">
        <ele>11.8</ele>
        <time>2019-04-10T22:46:09Z</time>
      </trkpt>
      <trkpt lat="51.228893470603" lon="4.514678843103">
        <ele>10.6</ele>
        <time>2019-04-10T22:46:16Z</time>
      </trkpt>
      <trkpt lat="51.228839072072" lon="4.514990482145">
        <ele>11</ele>
        <time>2019-04-10T22:46:24Z</time>
      </trkpt>
      <trkpt lat="51.228777548926" lon="4.515267420121">
        <ele>10.8</ele>
        <time>2019-04-10T22:46:31Z</time>
      </trkpt>
      <trkpt lat="51.228722228386" lon="4.515584255941">
        <ele>13.2</ele>
        <time>2019-04-10T22:46:38Z</time>
      </trkpt>
      <trkpt lat="51.228664225638" lon="4.515881813391">
        <ele>13.8</ele>
        <time>2019-04-10T22:46:45Z</time>
      </trkpt>
      <trkpt lat="51.228611838763" lon="4.516177443004">
        <ele>14</ele>
        <time>2019-04-10T22:46:52Z</time>
      </trkpt>
      <trkpt lat="51.228560625354" lon="4.516467708201">
        <ele>13.4</ele>
        <time>2019-04-10T22:46:59Z</time>
      </trkpt>
      <trkpt lat="51.228524247908" lon="4.516763589271">
        <ele>13.4</ele>
        <time>2019-04-10T22:47:07Z</time>
      </trkpt>
      <trkpt lat="51.228398603227" lon="4.51703357027">
        <ele>16.4</ele>
        <time>2019-04-10T22:47:14Z</time>
      </trkpt>
      <trkpt lat="51.228270360157" lon="4.517272873515">
        <ele>17.4</ele>
        <time>2019-04-10T22:47:20Z</time>
      </trkpt>
      <trkpt lat="51.228151169539" lon="4.517542267781">
        <ele>15.4</ele>
        <time>2019-04-10T22:47:26Z</time>
      </trkpt>
      <trkpt lat="51.228037846251" lon="4.517795149704">
        <ele>13.4</ele>
        <time>2019-04-10T22:47:32Z</time>
      </trkpt>
      <trkpt lat="51.227942041134" lon="4.518040320279">
        <ele>12.2</ele>
        <time>2019-04-10T22:47:38Z</time>
      </trkpt>
      <trkpt lat="51.227841709791" lon="4.518333435322">
        <ele>12</ele>
        <time>2019-04-10T22:47:45Z</time>
      </trkpt>
      <trkpt lat="51.227722519173" lon="4.518605092701">
        <ele>14.6</ele>
        <time>2019-04-10T22:47:52Z</time>
      </trkpt>
      <trkpt lat="51.22762218783" lon="4.51885244257">
        <ele>14.8</ele>
        <time>2019-04-10T22:47:58Z</time>
      </trkpt>
      <trkpt lat="51.227510876198" lon="4.519097864602">
        <ele>13.4</ele>
        <time>2019-04-10T22:48:05Z</time>
      </trkpt>
      <trkpt lat="51.227334353384" lon="4.519235663038">
        <ele>15.6</ele>
        <time>2019-04-10T22:48:14Z</time>
      </trkpt>
      <trkpt lat="51.227145844453" lon="4.519251588648">
        <ele>21</ele>
        <time>2019-04-10T22:48:23Z</time>
      </trkpt>
      <trkpt lat="51.22710167184" lon="4.518942799452">
        <ele>22.4</ele>
        <time>2019-04-10T22:48:30Z</time>
      </trkpt>
      <trkpt lat="51.227040986884" lon="4.518646583106">
        <ele>25.6</ele>
        <time>2019-04-10T22:48:37Z</time>
      </trkpt>
      <trkpt lat="51.226974099322" lon="4.518331172209">
        <ele>26.6</ele>
        <time>2019-04-10T22:48:44Z</time>
      </trkpt>
      <trkpt lat="51.226905367742" lon="4.518019197891">
        <ele>24.6</ele>
        <time>2019-04-10T22:48:51Z</time>
      </trkpt>
      <trkpt lat="51.22685272941" lon="4.517741421725">
        <ele>27.2</ele>
        <time>2019-04-10T22:48:57Z</time>
      </trkpt>
      <trkpt lat="51.226801013087" lon="4.517455431297">
        <ele>29.4</ele>
        <time>2019-04-10T22:49:04Z</time>
      </trkpt>
      <trkpt lat="51.226735885724" lon="4.517155694553">
        <ele>26.2</ele>
        <time>2019-04-10T22:49:12Z</time>
      </trkpt>
      <trkpt lat="51.226708728368" lon="4.516859562026">
        <ele>24.8</ele>
        <time>2019-04-10T22:49:20Z</time>
      </trkpt>
      <trkpt lat="51.226671261275" lon="4.516550353735">
        <ele>25.8</ele>
        <time>2019-04-10T22:49:28Z</time>
      </trkpt>
      <trkpt lat="51.226624406454" lon="4.516271990836">
        <ele>27</ele>
        <time>2019-04-10T22:49:34Z</time>
      </trkpt>
      <trkpt lat="51.226548634078" lon="4.51598415639">
        <ele>25.4</ele>
        <time>2019-04-10T22:49:41Z</time>
      </trkpt>
      <trkpt lat="51.226483422896" lon="4.515712163735">
        <ele>24.6</ele>
        <time>2019-04-10T22:49:48Z</time>
      </trkpt>
      <trkpt lat="51.22642273794" lon="4.515397255752">
        <ele>24.8</ele>
        <time>2019-04-10T22:49:56Z</time>
      </trkpt>
      <trkpt lat="51.226375380205" lon="4.51511914431">
        <ele>25.2</ele>
        <time>2019-04-10T22:50:02Z</time>
      </trkpt>
      <trkpt lat="51.226304134055" lon="4.514819323747">
        <ele>23.8</ele>
        <time>2019-04-10T22:50:09Z</time>
      </trkpt>
      <trkpt lat="51.226235151018" lon="4.51454917511">
        <ele>26.2</ele>
        <time>2019-04-10T22:50:15Z</time>
      </trkpt>
      <trkpt lat="51.226175304252" lon="4.514240972647">
        <ele>27.2</ele>
        <time>2019-04-10T22:50:22Z</time>
      </trkpt>
      <trkpt lat="51.226116966228" lon="4.513920281153">
        <ele>27.2</ele>
        <time>2019-04-10T22:50:29Z</time>
      </trkpt>
      <trkpt lat="51.22605141977" lon="4.513637475847">
        <ele>22.6</ele>
        <time>2019-04-10T22:50:35Z</time>
      </trkpt>
      <trkpt lat="51.22606902176" lon="4.513348719392">
        <ele>17.6</ele>
        <time>2019-04-10T22:50:42Z</time>
      </trkpt>
      <trkpt lat="51.226017389256" lon="4.513029117545">
        <ele>15.2</ele>
        <time>2019-04-10T22:50:49Z</time>
      </trkpt>
      <trkpt lat="51.225968858055" lon="4.512743127117">
        <ele>14.8</ele>
        <time>2019-04-10T22:50:56Z</time>
      </trkpt>
      <trkpt lat="51.225916387361" lon="4.512448335694">
        <ele>13.6</ele>
        <time>2019-04-10T22:51:04Z</time>
      </trkpt>
      <trkpt lat="51.225868275255" lon="4.512163015818">
        <ele>14.2</ele>
        <time>2019-04-10T22:51:11Z</time>
      </trkpt>
      <trkpt lat="51.225790155947" lon="4.511868727309">
        <ele>14.6</ele>
        <time>2019-04-10T22:51:18Z</time>
      </trkpt>
      <trkpt lat="51.225722933109" lon="4.511593381894">
        <ele>16</ele>
        <time>2019-04-10T22:51:24Z</time>
      </trkpt>
      <trkpt lat="51.225680772152" lon="4.511297584643">
        <ele>19</ele>
        <time>2019-04-10T22:51:30Z</time>
      </trkpt>
      <trkpt lat="51.225623356137" lon="4.510978988624">
        <ele>20.4</ele>
        <time>2019-04-10T22:51:37Z</time>
      </trkpt>
      <trkpt lat="51.225579183524" lon="4.5106859574">
        <ele>16.4</ele>
        <time>2019-04-10T22:51:44Z</time>
      </trkpt>
      <trkpt lat="51.225513972342" lon="4.510376749109">
        <ele>16.2</ele>
        <time>2019-04-10T22:51:52Z</time>
      </trkpt>
      <trkpt lat="51.225451862463" lon="4.510098805305">
        <ele>15.6</ele>
        <time>2019-04-10T22:51:59Z</time>
      </trkpt>
      <trkpt lat="51.2254034989" lon="4.509813485429">
        <ele>15.2</ele>
        <time>2019-04-10T22:52:06Z</time>
      </trkpt>
      <trkpt lat="51.22534063465" lon="4.509512156124">
        <ele>15.4</ele>
        <time>2019-04-10T22:52:13Z</time>
      </trkpt>
      <trkpt lat="51.225278692409" lon="4.509220968918">
        <ele>16.6</ele>
        <time>2019-04-10T22:52:20Z</time>
      </trkpt>
      <trkpt lat="51.225229909751" lon="4.50891821469">
        <ele>14.2</ele>
        <time>2019-04-10T22:52:28Z</time>
      </trkpt>
      <trkpt lat="51.225170649718" lon="4.508642785456">
        <ele>12.8</ele>
        <time>2019-04-10T22:52:35Z</time>
      </trkpt>
      <trkpt lat="51.225114993902" lon="4.508345060368">
        <ele>11.8</ele>
        <time>2019-04-10T22:52:42Z</time>
      </trkpt>
      <trkpt lat="51.225060427733" lon="4.508065524003">
        <ele>12</ele>
        <time>2019-04-10T22:52:49Z</time>
      </trkpt>
      <trkpt lat="51.224998736949" lon="4.50778833457">
        <ele>10.2</ele>
        <time>2019-04-10T22:52:56Z</time>
      </trkpt>
      <trkpt lat="51.224937884355" lon="4.507493207871">
        <ele>10.8</ele>
        <time>2019-04-10T22:53:03Z</time>
      </trkpt>
      <trkpt lat="51.224888514964" lon="4.507204535235">
        <ele>11</ele>
        <time>2019-04-10T22:53:10Z</time>
      </trkpt>
      <trkpt lat="51.224809557466" lon="4.506905971957">
        <ele>12.4</ele>
        <time>2019-04-10T22:53:17Z</time>
      </trkpt>
      <trkpt lat="51.224729258864" lon="4.506618556606">
        <ele>13.2</ele>
        <time>2019-04-10T22:53:24Z</time>
      </trkpt>
      <trkpt lat="51.224670417926" lon="4.506323346088">
        <ele>14.2</ele>
        <time>2019-04-10T22:53:31Z</time>
      </trkpt>
      <trkpt lat="51.224632867014" lon="4.506024531353">
        <ele>11.8</ele>
        <time>2019-04-10T22:53:38Z</time>
      </trkpt>
      <trkpt lat="51.224522645029" lon="4.505436457249">
        <ele>11.2</ele>
        <time>2019-04-10T22:53:51Z</time>
      </trkpt>
      <trkpt lat="51.224477215131" lon="4.505115430479">
        <ele>11.6</ele>
        <time>2019-04-10T22:53:58Z</time>
      </trkpt>
      <trkpt lat="51.224428013378" lon="4.504827679852">
        <ele>10.2</ele>
        <time>2019-04-10T22:54:05Z</time>
      </trkpt>
      <trkpt lat="51.224376967607" lon="4.504521321407">
        <ele>9.2</ele>
        <time>2019-04-10T22:54:12Z</time>
      </trkpt>
      <trkpt lat="51.224318461945" lon="4.504218818636">
        <ele>8</ele>
        <time>2019-04-10T22:54:19Z</time>
      </trkpt>
      <trkpt lat="51.224246964338" lon="4.503919417168">
        <ele>7</ele>
        <time>2019-04-10T22:54:26Z</time>
      </trkpt>
      <trkpt lat="51.224176640197" lon="4.503615992388">
        <ele>7</ele>
        <time>2019-04-10T22:54:33Z</time>
      </trkpt>
      <trkpt lat="51.224127019349" lon="4.503302509328">
        <ele>6.8</ele>
        <time>2019-04-10T22:54:40Z</time>
      </trkpt>
      <trkpt lat="51.224068681325" lon="4.502997156711">
        <ele>7</ele>
        <time>2019-04-10T22:54:47Z</time>
      </trkpt>
      <trkpt lat="51.223968685258" lon="4.502725499332">
        <ele>5.2</ele>
        <time>2019-04-10T22:54:55Z</time>
      </trkpt>
      <trkpt lat="51.223927111034" lon="4.502430037357">
        <ele>5.8</ele>
        <time>2019-04-10T22:55:02Z</time>
      </trkpt>
      <trkpt lat="51.2238947569" lon="4.502130971165">
        <ele>6.6</ele>
        <time>2019-04-10T22:55:09Z</time>
      </trkpt>
      <trkpt lat="51.223847063889" lon="4.501853781732">
        <ele>7.4</ele>
        <time>2019-04-10T22:55:16Z</time>
      </trkpt>
      <trkpt lat="51.223793252091" lon="4.501573574815">
        <ele>7.8</ele>
        <time>2019-04-10T22:55:23Z</time>
      </trkpt>
      <trkpt lat="51.223726951262" lon="4.501296217744">
        <ele>8.6</ele>
        <time>2019-04-10T22:55:30Z</time>
      </trkpt>
      <trkpt lat="51.223671714541" lon="4.500988518195">
        <ele>9.4</ele>
        <time>2019-04-10T22:55:37Z</time>
      </trkpt>
      <trkpt lat="51.223615555811" lon="4.500710909667">
        <ele>11.4</ele>
        <time>2019-04-10T22:55:44Z</time>
      </trkpt>
      <trkpt lat="51.223551853371" lon="4.500415196235">
        <ele>12.8</ele>
        <time>2019-04-10T22:55:51Z</time>
      </trkpt>
      <trkpt lat="51.223479349936" lon="4.500121997373">
        <ele>12.8</ele>
        <time>2019-04-10T22:55:58Z</time>
      </trkpt>
      <trkpt lat="51.223416401867" lon="4.499834162927">
        <ele>11.4</ele>
        <time>2019-04-10T22:56:05Z</time>
      </trkpt>
      <trkpt lat="51.223358063843" lon="4.499562421729">
        <ele>11.2</ele>
        <time>2019-04-10T22:56:11Z</time>
      </trkpt>
      <trkpt lat="51.223305341692" lon="4.499267462668">
        <ele>11.2</ele>
        <time>2019-04-10T22:56:18Z</time>
      </trkpt>
      <trkpt lat="51.22326024707" lon="4.498946603536">
        <ele>11.2</ele>
        <time>2019-04-10T22:56:25Z</time>
      </trkpt>
      <trkpt lat="51.223211045317" lon="4.498647453525">
        <ele>10.6</ele>
        <time>2019-04-10T22:56:32Z</time>
      </trkpt>
      <trkpt lat="51.223166956523" lon="4.498328354592">
        <ele>10.2</ele>
        <time>2019-04-10T22:56:40Z</time>
      </trkpt>
      <trkpt lat="51.223118928236" lon="4.498057703041">
        <ele>9.8</ele>
        <time>2019-04-10T22:56:48Z</time>
      </trkpt>
      <trkpt lat="51.223142313737" lon="4.497957958431">
        <ele>10.2</ele>
        <time>2019-04-10T22:56:51Z</time>
      </trkpt>
      <trkpt lat="51.22303645034" lon="4.497681020455">
        <ele>10</ele>
        <time>2019-04-10T22:56:59Z</time>
      </trkpt>
      <trkpt lat="51.222959923593" lon="4.497396035855">
        <ele>10.8</ele>
        <time>2019-04-10T22:57:06Z</time>
      </trkpt>
      <trkpt lat="51.222897394619" lon="4.497108369047">
        <ele>11.2</ele>
        <time>2019-04-10T22:57:13Z</time>
      </trkpt>
      <trkpt lat="51.222827573392" lon="4.496828581225">
        <ele>10.2</ele>
        <time>2019-04-10T22:57:20Z</time>
      </trkpt>
      <trkpt lat="51.222757919803" lon="4.496558684045">
        <ele>11</ele>
        <time>2019-04-10T22:57:27Z</time>
      </trkpt>
      <trkpt lat="51.222696480476" lon="4.49628669139">
        <ele>11.6</ele>
        <time>2019-04-10T22:57:34Z</time>
      </trkpt>
      <trkpt lat="51.222634286778" lon="4.495981254954">
        <ele>11.4</ele>
        <time>2019-04-10T22:57:41Z</time>
      </trkpt>
      <trkpt lat="51.222574523831" lon="4.495686463531">
        <ele>11.4</ele>
        <time>2019-04-10T22:57:48Z</time>
      </trkpt>
      <trkpt lat="51.2225201253" lon="4.495385804778">
        <ele>13</ele>
        <time>2019-04-10T22:57:55Z</time>
      </trkpt>
      <trkpt lat="51.222461116724" lon="4.495073998098">
        <ele>12</ele>
        <time>2019-04-10T22:58:02Z</time>
      </trkpt>
      <trkpt lat="51.222407640202" lon="4.494773339345">
        <ele>11.2</ele>
        <time>2019-04-10T22:58:09Z</time>
      </trkpt>
      <trkpt lat="51.222349637454" lon="4.494478464103">
        <ele>10.8</ele>
        <time>2019-04-10T22:58:16Z</time>
      </trkpt>
      <trkpt lat="51.222295238923" lon="4.494178140626">
        <ele>9.4</ele>
        <time>2019-04-10T22:58:23Z</time>
      </trkpt>
      <trkpt lat="51.222237487632" lon="4.493872117457">
        <ele>10.2</ele>
        <time>2019-04-10T22:58:30Z</time>
      </trkpt>
      <trkpt lat="51.222186441861" lon="4.493597023499">
        <ele>9.8</ele>
        <time>2019-04-10T22:58:36Z</time>
      </trkpt>
      <trkpt lat="51.222126427457" lon="4.493322516274">
        <ele>10.2</ele>
        <time>2019-04-10T22:58:42Z</time>
      </trkpt>
      <trkpt lat="51.222074962591" lon="4.493038788959">
        <ele>10.4</ele>
        <time>2019-04-10T22:58:48Z</time>
      </trkpt>
      <trkpt lat="51.222021821345" lon="4.492764868467">
        <ele>9.6</ele>
        <time>2019-04-10T22:58:54Z</time>
      </trkpt>
      <trkpt lat="51.221955939611" lon="4.492489942147">
        <ele>9.2</ele>
        <time>2019-04-10T22:59:00Z</time>
      </trkpt>
      <trkpt lat="51.221901038166" lon="4.492181404408">
        <ele>9.8</ele>
        <time>2019-04-10T22:59:07Z</time>
      </trkpt>
      <trkpt lat="51.221810010732" lon="4.491779408484">
        <ele>11.2</ele>
        <time>2019-04-10T22:59:16Z</time>
      </trkpt>
      <trkpt lat="51.221739602772" lon="4.49146877527">
        <ele>11.2</ele>
        <time>2019-04-10T22:59:23Z</time>
      </trkpt>
      <trkpt lat="51.221685958612" lon="4.491159315522">
        <ele>12</ele>
        <time>2019-04-10T22:59:30Z</time>
      </trkpt>
      <trkpt lat="51.221632146814" lon="4.490886317039">
        <ele>12.4</ele>
        <time>2019-04-10T22:59:37Z</time>
      </trkpt>
      <trkpt lat="51.221583783251" lon="4.490586664114">
        <ele>11</ele>
        <time>2019-04-10T22:59:45Z</time>
      </trkpt>
      <trkpt lat="51.221525696684" lon="4.490297740021">
        <ele>10.2</ele>
        <time>2019-04-10T22:59:52Z</time>
      </trkpt>
      <trkpt lat="51.221452774154" lon="4.490001272218">
        <ele>10.4</ele>
        <time>2019-04-10T22:59:59Z</time>
      </trkpt>
      <trkpt lat="51.221385383678" lon="4.489704972053">
        <ele>8.4</ele>
        <time>2019-04-10T23:00:06Z</time>
      </trkpt>
      <trkpt lat="51.221307012913" lon="4.48941185701">
        <ele>5.8</ele>
        <time>2019-04-10T23:00:13Z</time>
      </trkpt>
      <trkpt lat="51.221251608554" lon="4.48910843223">
        <ele>6.4</ele>
        <time>2019-04-10T23:00:20Z</time>
      </trkpt>
      <trkpt lat="51.22121673985" lon="4.488792183143">
        <ele>8.4</ele>
        <time>2019-04-10T23:00:28Z</time>
      </trkpt>
      <trkpt lat="51.221156138713" lon="4.488512814416">
        <ele>9.4</ele>
        <time>2019-04-10T23:00:35Z</time>
      </trkpt>
      <trkpt lat="51.2210952023" lon="4.488209221998">
        <ele>9.6</ele>
        <time>2019-04-10T23:00:42Z</time>
      </trkpt>
      <trkpt lat="51.221026638358" lon="4.487910071987">
        <ele>9</ele>
        <time>2019-04-10T23:00:49Z</time>
      </trkpt>
      <trkpt lat="51.220994870957" lon="4.487599187316">
        <ele>7.6</ele>
        <time>2019-04-10T23:00:56Z</time>
      </trkpt>
      <trkpt lat="51.220927145205" lon="4.487304144436">
        <ele>6.4</ele>
        <time>2019-04-10T23:01:03Z</time>
      </trkpt>
      <trkpt lat="51.220864867688" lon="4.487012538135">
        <ele>7.8</ele>
        <time>2019-04-10T23:01:10Z</time>
      </trkpt>
      <trkpt lat="51.220813319003" lon="4.486717662893">
        <ele>8.4</ele>
        <time>2019-04-10T23:01:17Z</time>
      </trkpt>
      <trkpt lat="51.220739223007" lon="4.48641784233">
        <ele>8.6</ele>
        <time>2019-04-10T23:01:24Z</time>
      </trkpt>
      <trkpt lat="51.220697564964" lon="4.48610855022">
        <ele>7.6</ele>
        <time>2019-04-10T23:01:31Z</time>
      </trkpt>
      <trkpt lat="51.220646854469" lon="4.485822224516">
        <ele>9</ele>
        <time>2019-04-10T23:01:39Z</time>
      </trkpt>
      <trkpt lat="51.220565047125" lon="4.485532043138">
        <ele>10.4</ele>
        <time>2019-04-10T23:01:47Z</time>
      </trkpt>
      <trkpt lat="51.220517521752" lon="4.485222331933">
        <ele>11</ele>
        <time>2019-04-10T23:01:55Z</time>
      </trkpt>
      <trkpt lat="51.220453903131" lon="4.484947992346">
        <ele>11.2</ele>
        <time>2019-04-10T23:02:02Z</time>
      </trkpt>
      <trkpt lat="51.220392715261" lon="4.484651273086">
        <ele>10.6</ele>
        <time>2019-04-10T23:02:09Z</time>
      </trkpt>
      <trkpt lat="51.220328342269" lon="4.484366372305">
        <ele>11</ele>
        <time>2019-04-10T23:02:16Z</time>
      </trkpt>
      <trkpt lat="51.220273105548" lon="4.484063282801">
        <ele>10.2</ele>
        <time>2019-04-10T23:02:23Z</time>
      </trkpt>
      <trkpt lat="51.220203871054" lon="4.483761031487">
        <ele>9</ele>
        <time>2019-04-10T23:02:30Z</time>
      </trkpt>
      <trkpt lat="51.220146622677" lon="4.48344645878">
        <ele>8.4</ele>
        <time>2019-04-10T23:02:37Z</time>
      </trkpt>
      <trkpt lat="51.220082920237" lon="4.483143453095">
        <ele>9.8</ele>
        <time>2019-04-10T23:02:44Z</time>
      </trkpt>
      <trkpt lat="51.220030952457" lon="4.482834663899">
        <ele>11.2</ele>
        <time>2019-04-10T23:02:51Z</time>
      </trkpt>
      <trkpt lat="51.219965238361" lon="4.482524282142">
        <ele>11.8</ele>
        <time>2019-04-10T23:02:58Z</time>
      </trkpt>
      <trkpt lat="51.219910420735" lon="4.48224952346">
        <ele>11.6</ele>
        <time>2019-04-10T23:03:04Z</time>
      </trkpt>
      <trkpt lat="51.219848143218" lon="4.481944170843">
        <ele>11.6</ele>
        <time>2019-04-10T23:03:11Z</time>
      </trkpt>
      <trkpt lat="51.219802545682" lon="4.48164854123">
        <ele>11.6</ele>
        <time>2019-04-10T23:03:18Z</time>
      </trkpt>
      <trkpt lat="51.219745800219" lon="4.481333884704">
        <ele>12.4</ele>
        <time>2019-04-10T23:03:25Z</time>
      </trkpt>
      <trkpt lat="51.21968033758" lon="4.481046050258">
        <ele>12.4</ele>
        <time>2019-04-10T23:03:32Z</time>
      </trkpt>
      <trkpt lat="51.219624849402" lon="4.480747822256">
        <ele>12.2</ele>
        <time>2019-04-10T23:03:39Z</time>
      </trkpt>
      <trkpt lat="51.219557878021" lon="4.480447582598">
        <ele>13.2</ele>
        <time>2019-04-10T23:03:47Z</time>
      </trkpt>
      <trkpt lat="51.219486380414" lon="4.480154635193">
        <ele>13.6</ele>
        <time>2019-04-10T23:03:55Z</time>
      </trkpt>
      <trkpt lat="51.219431227512" lon="4.479858502666">
        <ele>13.2</ele>
        <time>2019-04-10T23:04:02Z</time>
      </trkpt>
      <trkpt lat="51.219373224764" lon="4.479549964927">
        <ele>11.8</ele>
        <time>2019-04-10T23:04:09Z</time>
      </trkpt>
      <trkpt lat="51.219306337202" lon="4.479280486842">
        <ele>13.2</ele>
        <time>2019-04-10T23:04:15Z</time>
      </trkpt>
      <trkpt lat="51.219239533459" lon="4.478974966587">
        <ele>15</ele>
        <time>2019-04-10T23:04:22Z</time>
      </trkpt>
      <trkpt lat="51.219169796051" lon="4.47867883406">
        <ele>14.6</ele>
        <time>2019-04-10T23:04:29Z</time>
      </trkpt>
      <trkpt lat="51.219073571839" lon="4.478168124893">
        <ele>15</ele>
        <time>2019-04-10T23:04:41Z</time>
      </trkpt>
      <trkpt lat="51.219024956819" lon="4.477874087841">
        <ele>14.8</ele>
        <time>2019-04-10T23:04:48Z</time>
      </trkpt>
      <trkpt lat="51.21896536151" lon="4.477574351097">
        <ele>13.6</ele>
        <time>2019-04-10T23:04:55Z</time>
      </trkpt>
      <trkpt lat="51.21888070432" lon="4.477283080072">
        <ele>14</ele>
        <time>2019-04-10T23:05:02Z</time>
      </trkpt>
      <trkpt lat="51.218856312991" lon="4.476965406062">
        <ele>13.6</ele>
        <time>2019-04-10T23:05:09Z</time>
      </trkpt>
      <trkpt lat="51.218869556393" lon="4.476649743708">
        <ele>14.8</ele>
        <time>2019-04-10T23:05:16Z</time>
      </trkpt>
      <trkpt lat="51.218903419269" lon="4.476328465481">
        <ele>15.6</ele>
        <time>2019-04-10T23:05:23Z</time>
      </trkpt>
      <trkpt lat="51.218924876933" lon="4.476011042928">
        <ele>18.8</ele>
        <time>2019-04-10T23:05:30Z</time>
      </trkpt>
      <trkpt lat="51.218965948243" lon="4.475689094149">
        <ele>18.6</ele>
        <time>2019-04-10T23:05:37Z</time>
      </trkpt>
      <trkpt lat="51.218999140567" lon="4.475392710165">
        <ele>18.2</ele>
        <time>2019-04-10T23:05:44Z</time>
      </trkpt>
      <trkpt lat="51.219030488873" lon="4.47509892457">
        <ele>17</ele>
        <time>2019-04-10T23:05:52Z</time>
      </trkpt>
      <trkpt lat="51.219099555729" lon="4.474806982993">
        <ele>13.8</ele>
        <time>2019-04-10T23:06:00Z</time>
      </trkpt>
      <trkpt lat="51.219145991455" lon="4.47448704587">
        <ele>12</ele>
        <time>2019-04-10T23:06:08Z</time>
      </trkpt>
      <trkpt lat="51.21918915824" lon="4.474187225307">
        <ele>12.8</ele>
        <time>2019-04-10T23:06:15Z</time>
      </trkpt>
      <trkpt lat="51.219225619505" lon="4.473889081124">
        <ele>13</ele>
        <time>2019-04-10T23:06:22Z</time>
      </trkpt>
      <trkpt lat="51.219272306688" lon="4.473587919457">
        <ele>13.2</ele>
        <time>2019-04-10T23:06:29Z</time>
      </trkpt>
      <trkpt lat="51.219317988043" lon="4.47328172865">
        <ele>13.8</ele>
        <time>2019-04-10T23:06:36Z</time>
      </trkpt>
      <trkpt lat="51.219353694937" lon="4.472970341065">
        <ele>15.8</ele>
        <time>2019-04-10T23:06:43Z</time>
      </trkpt>
      <trkpt lat="51.219410188943" lon="4.47266062986">
        <ele>18.4</ele>
        <time>2019-04-10T23:06:50Z</time>
      </trkpt>
      <trkpt lat="51.219469700433" lon="4.472358546184">
        <ele>19.2</ele>
        <time>2019-04-10T23:06:57Z</time>
      </trkpt>
      <trkpt lat="51.21952275786" lon="4.472050511359">
        <ele>19.4</ele>
        <time>2019-04-10T23:07:04Z</time>
      </trkpt>
      <trkpt lat="51.219590232155" lon="4.471742727991">
        <ele>19.2</ele>
        <time>2019-04-10T23:07:11Z</time>
      </trkpt>
      <trkpt lat="51.219637506071" lon="4.471438129745">
        <ele>18.8</ele>
        <time>2019-04-10T23:07:19Z</time>
      </trkpt>
      <trkpt lat="51.219700873235" lon="4.471138644458">
        <ele>20.4</ele>
        <time>2019-04-10T23:07:27Z</time>
      </trkpt>
      <trkpt lat="51.219754685033" lon="4.470829603805">
        <ele>22.4</ele>
        <time>2019-04-10T23:07:35Z</time>
      </trkpt>
      <trkpt lat="51.219820399129" lon="4.470553755476">
        <ele>23</ele>
        <time>2019-04-10T23:07:42Z</time>
      </trkpt>
      <trkpt lat="51.219874127108" lon="4.470263909374">
        <ele>24.4</ele>
        <time>2019-04-10T23:07:49Z</time>
      </trkpt>
      <trkpt lat="51.219917377712" lon="4.469953611436">
        <ele>25.6</ele>
        <time>2019-04-10T23:07:56Z</time>
      </trkpt>
      <trkpt lat="51.219941517584" lon="4.469617581065">
        <ele>27.2</ele>
        <time>2019-04-10T23:08:03Z</time>
      </trkpt>
      <trkpt lat="51.219961382687" lon="4.469324968936">
        <ele>27.2</ele>
        <time>2019-04-10T23:08:09Z</time>
      </trkpt>
      <trkpt lat="51.219977559754" lon="4.469020705966">
        <ele>29.2</ele>
        <time>2019-04-10T23:08:15Z</time>
      </trkpt>
      <trkpt lat="51.220019888349" lon="4.468705881802">
        <ele>27.8</ele>
        <time>2019-04-10T23:08:22Z</time>
      </trkpt>
      <trkpt lat="51.22004578842" lon="4.468380161168">
        <ele>25.6</ele>
        <time>2019-04-10T23:08:30Z</time>
      </trkpt>
      <trkpt lat="51.220062887496" lon="4.468070869058">
        <ele>23</ele>
        <time>2019-04-10T23:08:37Z</time>
      </trkpt>
      <trkpt lat="51.220081411495" lon="4.467756631627">
        <ele>19.2</ele>
        <time>2019-04-10T23:08:44Z</time>
      </trkpt>
      <trkpt lat="51.220079148382" lon="4.467440550178">
        <ele>17</ele>
        <time>2019-04-10T23:08:51Z</time>
      </trkpt>
      <trkpt lat="51.220076549993" lon="4.46713863414">
        <ele>14.8</ele>
        <time>2019-04-10T23:08:57Z</time>
      </trkpt>
      <trkpt lat="51.220064312419" lon="4.466808806375">
        <ele>14.8</ele>
        <time>2019-04-10T23:09:04Z</time>
      </trkpt>
      <trkpt lat="51.220060456745" lon="4.466519127911">
        <ele>15.4</ele>
        <time>2019-04-10T23:09:11Z</time>
      </trkpt>
      <trkpt lat="51.220044698773" lon="4.466198687874">
        <ele>13.8</ele>
        <time>2019-04-10T23:09:19Z</time>
      </trkpt>
      <trkpt lat="51.220042770936" lon="4.465905489012">
        <ele>12.6</ele>
        <time>2019-04-10T23:09:26Z</time>
      </trkpt>
      <trkpt lat="51.220045285506" lon="4.465597705644">
        <ele>12.6</ele>
        <time>2019-04-10T23:09:33Z</time>
      </trkpt>
      <trkpt lat="51.220057271623" lon="4.465299896737">
        <ele>14.4</ele>
        <time>2019-04-10T23:09:40Z</time>
      </trkpt>
      <trkpt lat="51.220072526681" lon="4.464974762836">
        <ele>12.6</ele>
        <time>2019-04-10T23:09:48Z</time>
      </trkpt>
      <trkpt lat="51.220079986572" lon="4.464676786291">
        <ele>11.8</ele>
        <time>2019-04-10T23:09:55Z</time>
      </trkpt>
      <trkpt lat="51.220067497541" lon="4.464153252817">
        <ele>14.4</ele>
        <time>2019-04-10T23:10:09Z</time>
      </trkpt>
      <trkpt lat="51.22002818643" lon="4.463843373974">
        <ele>15.8</ele>
        <time>2019-04-10T23:10:17Z</time>
      </trkpt>
      <trkpt lat="51.219952581692" lon="4.463542966678">
        <ele>15.4</ele>
        <time>2019-04-10T23:10:24Z</time>
      </trkpt>
      <trkpt lat="51.219908157622" lon="4.463252282386">
        <ele>13.6</ele>
        <time>2019-04-10T23:10:31Z</time>
      </trkpt>
      <trkpt lat="51.219877479868" lon="4.462938212593">
        <ele>10</ele>
        <time>2019-04-10T23:10:38Z</time>
      </trkpt>
      <trkpt lat="51.219875803488" lon="4.462604445335">
        <ele>13.6</ele>
        <time>2019-04-10T23:10:45Z</time>
      </trkpt>
      <trkpt lat="51.219827272287" lon="4.462324741332">
        <ele>18.4</ele>
        <time>2019-04-10T23:10:51Z</time>
      </trkpt>
      <trkpt lat="51.219824757717" lon="4.462020646">
        <ele>20</ele>
        <time>2019-04-10T23:10:57Z</time>
      </trkpt>
      <trkpt lat="51.21985887205" lon="4.461720154885">
        <ele>23.6</ele>
        <time>2019-04-10T23:11:03Z</time>
      </trkpt>
      <trkpt lat="51.219931124028" lon="4.461418657942">
        <ele>27.6</ele>
        <time>2019-04-10T23:11:10Z</time>
      </trkpt>
      <trkpt lat="51.220017122322" lon="4.461156555929">
        <ele>30.6</ele>
        <time>2019-04-10T23:11:16Z</time>
      </trkpt>
      <trkpt lat="51.220106305738" lon="4.460988750291">
        <ele>31.2</ele>
        <time>2019-04-10T23:11:21Z</time>
      </trkpt>
      <trkpt lat="51.22031987655" lon="4.46099889239">
        <ele>26.2</ele>
        <time>2019-04-10T23:11:29Z</time>
      </trkpt>
      <trkpt lat="51.22051601301" lon="4.4611489284">
        <ele>12</ele>
        <time>2019-04-10T23:11:34Z</time>
      </trkpt>
      <trkpt lat="51.220697648783" lon="4.461301059885">
        <ele>12.8</ele>
        <time>2019-04-10T23:11:39Z</time>
      </trkpt>
      <trkpt lat="51.2208856548" lon="4.46145989689">
        <ele>13</ele>
        <time>2019-04-10T23:11:45Z</time>
      </trkpt>
      <trkpt lat="51.221036529" lon="4.461646561803">
        <ele>14.4</ele>
        <time>2019-04-10T23:11:52Z</time>
      </trkpt>
      <trkpt lat="51.221115737955" lon="4.461913776775">
        <ele>16.8</ele>
        <time>2019-04-10T23:12:01Z</time>
      </trkpt>
      <trkpt lat="51.221125293321" lon="4.461925595254">
        <ele>17.2</ele>
        <time>2019-04-10T23:12:02Z</time>
      </trkpt>
      <trkpt lat="51.221209028502" lon="4.461984017097">
        <ele>19.6</ele>
        <time>2019-04-10T23:12:08Z</time>
      </trkpt>
      <trkpt lat="51.221352694268" lon="4.46203070428">
        <ele>26.2</ele>
        <time>2019-04-10T23:12:34Z</time>
      </trkpt>
      <trkpt lat="51.221493845464" lon="4.46185552257">
        <ele>10.8</ele>
        <time>2019-04-10T23:12:46Z</time>
      </trkpt>
      <trkpt lat="51.221580933405" lon="4.461599623163">
        <ele>12</ele>
        <time>2019-04-10T23:12:54Z</time>
      </trkpt>
      <trkpt lat="51.221745218645" lon="4.461417400657">
        <ele>11.4</ele>
        <time>2019-04-10T23:13:02Z</time>
      </trkpt>
      <trkpt lat="51.221916377043" lon="4.461251522856">
        <ele>13.4</ele>
        <time>2019-04-10T23:13:10Z</time>
      </trkpt>
      <trkpt lat="51.222081081378" lon="4.461112383316">
        <ele>14</ele>
        <time>2019-04-10T23:13:17Z</time>
      </trkpt>
      <trkpt lat="51.222251653043" lon="4.461063935934">
        <ele>10</ele>
        <time>2019-04-10T23:13:24Z</time>
      </trkpt>
      <trkpt lat="51.222376208077" lon="4.461324026291">
        <ele>6.8</ele>
        <time>2019-04-10T23:13:31Z</time>
      </trkpt>
      <trkpt lat="51.222458853611" lon="4.461612950384">
        <ele>5.8</ele>
        <time>2019-04-10T23:13:38Z</time>
      </trkpt>
      <trkpt lat="51.222528255743" lon="4.461886451781">
        <ele>7.8</ele>
        <time>2019-04-10T23:13:46Z</time>
      </trkpt>
      <trkpt lat="51.222630263466" lon="4.462156600418">
        <ele>10.2</ele>
        <time>2019-04-10T23:13:53Z</time>
      </trkpt>
      <trkpt lat="51.222659767754" lon="4.462180991747">
        <ele>12.2</ele>
        <time>2019-04-10T23:13:54Z</time>
      </trkpt>
      <trkpt lat="51.222837966948" lon="4.462056101437">
        <ele>18.8</ele>
        <time>2019-04-10T23:14:03Z</time>
      </trkpt>
      <trkpt lat="51.22300711369" lon="4.461945795633">
        <ele>23.8</ele>
        <time>2019-04-10T23:14:09Z</time>
      </trkpt>
      <trkpt lat="51.223186402531" lon="4.461840099874">
        <ele>26.2</ele>
        <time>2019-04-10T23:14:16Z</time>
      </trkpt>
      <trkpt lat="51.223382538991" lon="4.461756113236">
        <ele>27</ele>
        <time>2019-04-10T23:14:24Z</time>
      </trkpt>
      <trkpt lat="51.223531904449" lon="4.461583446096">
        <ele>18.8</ele>
        <time>2019-04-10T23:14:32Z</time>
      </trkpt>
      <trkpt lat="51.223703146666" lon="4.461474649034">
        <ele>22</ele>
        <time>2019-04-10T23:14:40Z</time>
      </trkpt>
      <trkpt lat="51.223870533209" lon="4.46135931409">
        <ele>16.8</ele>
        <time>2019-04-10T23:14:48Z</time>
      </trkpt>
      <trkpt lat="51.22405485119" lon="4.461210200089">
        <ele>12.2</ele>
        <time>2019-04-10T23:14:56Z</time>
      </trkpt>
      <trkpt lat="51.224232044556" lon="4.461077346974">
        <ele>13.6</ele>
        <time>2019-04-10T23:15:03Z</time>
      </trkpt>
      <trkpt lat="51.224411249578" lon="4.461008363937">
        <ele>10.2</ele>
        <time>2019-04-10T23:15:10Z</time>
      </trkpt>
      <trkpt lat="51.224589197315" lon="4.460899399237">
        <ele>7.6</ele>
        <time>2019-04-10T23:15:18Z</time>
      </trkpt>
      <trkpt lat="51.224751638537" lon="4.460751542521">
        <ele>5.8</ele>
        <time>2019-04-10T23:15:25Z</time>
      </trkpt>
      <trkpt lat="51.224916007596" lon="4.460622125985">
        <ele>3.2</ele>
        <time>2019-04-10T23:15:32Z</time>
      </trkpt>
      <trkpt lat="51.225074006411" lon="4.460470078319">
        <ele>3.6</ele>
        <time>2019-04-10T23:15:39Z</time>
      </trkpt>
      <trkpt lat="51.225246505913" lon="4.46030738564">
        <ele>5.4</ele>
        <time>2019-04-10T23:15:46Z</time>
      </trkpt>
      <trkpt lat="51.225417580492" lon="4.460184758443">
        <ele>4.4</ele>
        <time>2019-04-10T23:15:53Z</time>
      </trkpt>
      <trkpt lat="51.225589912356" lon="4.460047127645">
        <ele>5.2</ele>
        <time>2019-04-10T23:16:00Z</time>
      </trkpt>
      <trkpt lat="51.225931810057" lon="4.459826432218">
        <ele>15.4</ele>
        <time>2019-04-10T23:16:15Z</time>
      </trkpt>
      <trkpt lat="51.226087210483" lon="4.459756862448">
        <ele>16.6</ele>
        <time>2019-04-10T23:16:21Z</time>
      </trkpt>
      <trkpt lat="51.226259877623" lon="4.459691986542">
        <ele>15.4</ele>
        <time>2019-04-10T23:16:27Z</time>
      </trkpt>
      <trkpt lat="51.226439082645" lon="4.459549997156">
        <ele>15.4</ele>
        <time>2019-04-10T23:16:34Z</time>
      </trkpt>
      <trkpt lat="51.2266188744" lon="4.459428291968">
        <ele>15.2</ele>
        <time>2019-04-10T23:16:41Z</time>
      </trkpt>
      <trkpt lat="51.226663214651" lon="4.459390908694">
        <ele>15.4</ele>
        <time>2019-04-10T23:16:43Z</time>
      </trkpt>
    </trkseg>
  </trk>
</gpx>